createdAt,value
2022-11-21T00:00:47.614Z,19.90
2022-11-21T00:03:15.638Z,17.03
2022-11-21T00:05:47.501Z,18.03
2022-11-21T00:08:19.719Z,17.33
2022-11-21T00:10:46.750Z,17.27
2022-11-21T00:13:19.174Z,21.90
2022-11-21T00:15:46.368Z,17.83
2022-11-21T00:18:13.243Z,20.10
2022-11-21T00:20:41.148Z,18.80
2022-11-21T00:23:07.974Z,16.90
2022-11-21T00:25:37.370Z,18.67
2022-11-21T00:28:04.694Z,19.20
2022-11-21T00:30:31.373Z,15.90
2022-11-21T00:32:58.662Z,18.97
2022-11-21T00:35:25.404Z,17.60
2022-11-21T00:37:52.028Z,19.20
2022-11-21T00:40:18.858Z,18.03
2022-11-21T00:42:45.528Z,22.03
2022-11-21T00:45:15.618Z,18.70
2022-11-21T00:47:45.067Z,19.93
2022-11-21T00:50:11.696Z,18.63
2022-11-21T00:52:38.314Z,17.50
2022-11-21T00:55:05.118Z,16.90
2022-11-21T00:57:31.742Z,20.30
2022-11-21T00:59:58.325Z,22.13
2022-11-21T01:02:27.216Z,19.87
2022-11-21T01:04:55.343Z,16.20
2022-11-21T01:07:22.049Z,17.63
2022-11-21T01:09:48.807Z,20.97
2022-11-21T01:12:15.454Z,16.80
2022-11-21T01:14:42.063Z,18.10
2022-11-21T01:17:16.123Z,20.33
2022-11-21T01:19:42.814Z,18.40
2022-11-21T01:22:09.426Z,22.23
2022-11-21T01:24:36.036Z,20.10
2022-11-21T01:27:02.673Z,20.90
2022-11-21T01:29:29.499Z,19.80
2022-11-21T01:31:56.163Z,18.93
2022-11-21T01:34:22.891Z,21.47
2022-11-21T01:36:49.616Z,18.70
2022-11-21T01:39:16.224Z,20.60
2022-11-21T01:41:44.599Z,18.70
2022-11-21T01:44:22.302Z,21.20
2022-11-21T01:46:49.816Z,20.13
2022-11-21T01:49:20.647Z,17.50
2022-11-21T01:52:13.196Z,21.13
2022-11-21T01:54:46.534Z,19.87
2022-11-21T01:57:15.085Z,21.50
2022-11-21T01:59:53.458Z,18.00
2022-11-21T02:02:21.900Z,21.53
2022-11-21T02:04:49.057Z,20.23
2022-11-21T02:07:18.246Z,20.50
2022-11-21T02:09:49.121Z,17.77
2022-11-21T02:12:26.397Z,18.80
2022-11-21T02:14:53.857Z,20.20
2022-11-21T02:17:20.465Z,19.20
2022-11-21T02:19:59.636Z,16.07
2022-11-21T02:22:32.349Z,18.33
2022-11-21T02:25:04.314Z,16.30
2022-11-21T02:27:34.897Z,20.03
2022-11-21T02:30:02.763Z,14.50
2022-11-21T02:32:47.178Z,19.03
2022-11-21T02:35:18.518Z,19.30
2022-11-21T02:37:59.750Z,13.70
2022-11-21T02:40:32.965Z,13.87
2022-11-21T02:43:23.766Z,14.90
2022-11-21T02:45:50.461Z,14.23
2022-11-21T02:48:17.061Z,14.83
2022-11-21T02:50:47.671Z,15.57
2022-11-21T02:53:17.136Z,15.67
2022-11-21T02:55:44.366Z,15.70
2022-11-21T02:58:17.740Z,17.70
2022-11-21T03:00:45.375Z,20.27
2022-11-21T03:03:12.241Z,19.27
2022-11-21T03:05:39.681Z,19.20
2022-11-21T03:08:06.894Z,16.43
2022-11-21T03:10:33.756Z,18.40
2022-11-21T03:13:03.184Z,20.73
2022-11-21T03:15:32.233Z,16.97
2022-11-21T03:18:01.187Z,19.33
2022-11-21T03:20:27.900Z,15.67
2022-11-21T03:22:54.731Z,29.03
2022-11-21T03:25:21.444Z,20.50
2022-11-21T03:27:51.852Z,18.90
2022-11-21T03:30:19.522Z,20.73
2022-11-21T03:32:46.195Z,20.97
2022-11-21T03:35:15.137Z,21.60
2022-11-21T03:37:41.895Z,22.00
2022-11-21T03:40:09.155Z,18.37
2022-11-21T03:42:35.969Z,27.30
2022-11-21T03:45:02.580Z,21.47
2022-11-21T03:47:30.171Z,21.23
2022-11-21T03:49:59.159Z,21.67
2022-11-21T03:52:25.837Z,19.80
2022-11-21T03:54:52.420Z,19.13
2022-11-21T03:57:18.995Z,22.47
2022-11-21T03:59:45.599Z,20.00
2022-11-21T04:02:12.210Z,25.30
2022-11-21T04:04:38.763Z,23.43
2022-11-21T04:07:05.451Z,21.97
2022-11-21T04:09:32.182Z,22.47
2022-11-21T04:11:58.827Z,23.67
2022-11-21T04:14:25.573Z,21.83
2022-11-21T04:16:53.654Z,22.60
2022-11-21T04:19:20.256Z,26.80
2022-11-21T04:21:46.848Z,23.87
2022-11-21T04:24:13.404Z,25.80
2022-11-21T04:26:39.986Z,21.13
2022-11-21T04:29:06.636Z,24.20
2022-11-21T04:31:37.930Z,20.43
2022-11-21T04:34:06.616Z,21.50
2022-11-21T04:36:45.733Z,25.70
2022-11-21T04:39:12.400Z,20.80
2022-11-21T04:41:39.085Z,23.63
2022-11-21T04:44:08.206Z,22.77
2022-11-21T04:46:34.967Z,19.47
2022-11-21T04:49:02.128Z,23.20
2022-11-21T04:51:28.720Z,21.93
2022-11-21T04:53:55.299Z,24.17
2022-11-21T04:56:21.991Z,24.00
2022-11-21T04:58:52.648Z,21.20
2022-11-21T05:01:19.283Z,23.30
2022-11-21T05:03:45.898Z,24.97
2022-11-21T05:06:12.523Z,23.97
2022-11-21T05:08:39.066Z,28.17
2022-11-21T05:11:24.128Z,25.53
2022-11-21T05:13:53.649Z,23.63
2022-11-21T05:16:22.425Z,24.83
2022-11-21T05:18:49.055Z,24.93
2022-11-21T05:21:15.599Z,21.23
2022-11-21T05:23:42.172Z,26.13
2022-11-21T05:26:08.765Z,23.33
2022-11-21T05:28:35.399Z,24.73
2022-11-21T05:31:02.027Z,24.30
2022-11-21T05:33:28.626Z,23.93
2022-11-21T05:35:55.189Z,22.97
2022-11-21T05:38:21.788Z,22.70
2022-11-21T05:40:48.437Z,24.20
2022-11-21T05:43:33.758Z,24.37
2022-11-21T05:46:00.330Z,22.67
2022-11-21T05:48:27.094Z,26.67
2022-11-21T05:50:53.770Z,22.70
2022-11-21T05:53:20.435Z,26.20
2022-11-21T05:55:47.097Z,24.50
2022-11-21T05:58:18.714Z,23.07
2022-11-21T06:00:47.469Z,23.80
2022-11-21T06:03:30.702Z,23.60
2022-11-21T06:06:05.212Z,26.40
2022-11-21T06:08:34.335Z,23.90
2022-11-21T06:11:01.940Z,28.03
2022-11-21T06:13:28.732Z,26.67
2022-11-21T06:16:07.127Z,27.03
2022-11-21T06:18:36.032Z,23.10
2022-11-21T06:21:03.838Z,22.67
2022-11-21T06:23:30.820Z,23.13
2022-11-21T06:26:02.113Z,24.00
2022-11-21T06:28:33.944Z,27.17
2022-11-21T06:31:07.423Z,24.10
2022-11-21T06:33:34.718Z,24.43
2022-11-21T06:36:06.526Z,26.07
2022-11-21T06:38:33.320Z,25.37
2022-11-21T06:41:08.356Z,25.17
2022-11-21T06:43:34.968Z,29.43
2022-11-21T06:46:04.055Z,24.90
2022-11-21T06:48:31.570Z,23.73
2022-11-21T06:50:58.561Z,24.90
2022-11-21T06:53:25.098Z,22.50
2022-11-21T06:55:51.666Z,24.17
2022-11-21T06:58:18.202Z,24.30
2022-11-21T07:00:50.881Z,23.73
2022-11-21T07:03:18.354Z,22.97
2022-11-21T07:05:44.948Z,24.43
2022-11-21T07:08:13.434Z,24.47
2022-11-21T07:10:52.154Z,23.40
2022-11-21T07:13:28.524Z,22.03
2022-11-21T07:15:56.285Z,24.03
2022-11-21T07:18:23.142Z,24.77
2022-11-21T07:20:49.786Z,27.23
2022-11-21T07:23:17.143Z,23.70
2022-11-21T07:25:44.237Z,26.50
2022-11-21T07:28:10.813Z,22.80
2022-11-21T07:30:37.473Z,26.87
2022-11-21T07:33:06.260Z,21.97
2022-11-21T07:35:33.997Z,23.90
2022-11-21T07:38:01.064Z,27.50
2022-11-21T07:40:29.229Z,28.50
2022-11-21T07:43:04.435Z,26.70
2022-11-21T07:45:35.910Z,25.70
2022-11-21T07:48:04.991Z,25.80
2022-11-21T07:50:31.707Z,23.53
2022-11-21T07:53:00.189Z,28.83
2022-11-21T07:55:33.219Z,27.80
2022-11-21T07:58:07.602Z,29.43
2022-11-21T08:00:36.926Z,31.97
2022-11-21T08:03:07.262Z,28.13
2022-11-21T08:05:38.157Z,26.93
2022-11-21T08:08:05.988Z,31.50
2022-11-21T08:10:33.183Z,31.33
2022-11-21T08:12:59.804Z,29.73
2022-11-21T08:15:26.459Z,30.47
2022-11-21T08:17:53.068Z,27.50
2022-11-21T08:20:19.741Z,28.47
2022-11-21T08:22:46.359Z,32.30
2022-11-21T08:25:12.968Z,28.37
2022-11-21T08:27:40.291Z,27.37
2022-11-21T08:30:08.537Z,29.80
2022-11-21T08:32:35.369Z,25.63
2022-11-21T08:35:02.134Z,31.53
2022-11-21T08:37:32.017Z,30.57
2022-11-21T08:40:02.351Z,32.00
2022-11-21T08:42:29.069Z,27.90
2022-11-21T08:44:55.712Z,30.80
2022-11-21T08:47:22.432Z,30.77
2022-11-21T08:49:49.120Z,37.30
2022-11-21T08:52:17.454Z,28.47
2022-11-21T08:54:44.954Z,34.80
2022-11-21T08:57:12.475Z,31.43
2022-11-21T08:59:39.265Z,28.20
2022-11-21T09:02:06.097Z,31.77
2022-11-21T09:04:32.774Z,29.83
2022-11-21T09:06:59.693Z,29.60
2022-11-21T09:09:26.368Z,32.90
2022-11-21T09:11:52.894Z,28.87
2022-11-21T09:14:38.047Z,31.43
2022-11-21T09:17:23.325Z,26.90
2022-11-21T09:19:49.965Z,27.23
2022-11-21T09:22:17.131Z,28.37
2022-11-21T09:24:43.739Z,29.50
2022-11-21T09:27:10.332Z,28.03
2022-11-21T09:29:36.946Z,29.30
2022-11-21T09:32:03.576Z,31.57
2022-11-21T09:34:31.746Z,32.87
2022-11-21T09:36:58.513Z,28.90
2022-11-21T09:39:25.629Z,31.87
2022-11-21T09:41:58.368Z,30.73
2022-11-21T09:44:45.016Z,32.20
2022-11-21T09:47:28.644Z,30.80
2022-11-21T09:50:14.445Z,28.93
2022-11-21T09:52:47.098Z,29.50
2022-11-21T09:55:19.235Z,31.57
2022-11-21T09:57:49.315Z,33.97
2022-11-21T10:00:20.881Z,31.53
2022-11-21T10:02:47.917Z,34.53
2022-11-21T10:05:15.263Z,34.20
2022-11-21T10:07:42.921Z,30.87
2022-11-21T10:10:21.196Z,28.83
2022-11-21T10:12:56.772Z,34.60
2022-11-21T10:15:39.700Z,32.90
2022-11-21T10:18:31.795Z,29.97
2022-11-21T10:21:37.279Z,35.93
2022-11-21T10:24:19.145Z,31.37
2022-11-21T10:26:52.287Z,33.30
2022-11-21T10:29:28.122Z,29.03
2022-11-21T10:31:56.411Z,27.73
2022-11-21T10:34:26.859Z,31.87
2022-11-21T10:37:32.777Z,31.23
2022-11-21T10:40:23.852Z,25.80
2022-11-21T10:42:55.201Z,30.07
2022-11-21T10:45:22.880Z,34.87
2022-11-21T10:47:50.935Z,31.67
2022-11-21T10:50:47.272Z,35.00
2022-11-21T10:53:40.664Z,29.00
2022-11-21T10:56:18.149Z,34.03
2022-11-21T10:58:49.930Z,28.80
2022-11-21T11:01:20.922Z,34.07
2022-11-21T11:04:07.039Z,32.60
2022-11-21T11:06:34.754Z,32.97
2022-11-21T11:09:01.405Z,34.53
2022-11-21T11:11:28.000Z,29.13
2022-11-21T11:13:59.011Z,31.17
2022-11-21T11:16:27.152Z,30.23
2022-11-21T11:18:53.714Z,28.53
2022-11-21T11:21:22.522Z,33.67
2022-11-21T11:23:51.133Z,32.07
2022-11-21T11:26:28.674Z,30.50
2022-11-21T11:29:19.725Z,26.00
2022-11-21T11:31:58.687Z,28.77
2022-11-21T11:34:38.374Z,30.20
2022-11-21T11:37:13.290Z,28.40
2022-11-21T11:39:49.912Z,27.87
2022-11-21T11:43:04.616Z,25.10
2022-11-21T11:45:57.877Z,27.07
2022-11-21T11:48:24.440Z,25.80
2022-11-21T11:50:57.984Z,22.40
2022-11-21T11:53:32.859Z,24.53
2022-11-21T11:56:01.600Z,25.57
2022-11-21T11:58:34.272Z,26.60
2022-11-21T12:01:05.698Z,20.27
2022-11-21T12:03:32.388Z,20.50
2022-11-21T12:06:08.841Z,19.60
2022-11-21T12:08:54.975Z,22.40
2022-11-21T12:11:52.365Z,24.47
2022-11-21T12:14:57.495Z,21.00
2022-11-21T12:17:37.668Z,22.90
2022-11-21T12:20:13.788Z,22.73
2022-11-21T12:22:41.005Z,22.80
2022-11-21T12:25:12.754Z,22.40
2022-11-21T12:27:41.754Z,21.20
2022-11-21T12:30:29.782Z,20.10
2022-11-21T12:33:07.880Z,18.90
2022-11-21T12:35:50.524Z,19.87
2022-11-21T12:38:27.698Z,20.13
2022-11-21T12:41:32.636Z,22.47
2022-11-21T12:44:26.894Z,19.03
2022-11-21T12:47:16.633Z,16.93
2022-11-21T12:50:26.370Z,17.40
2022-11-21T12:53:18.598Z,19.37
2022-11-21T12:55:45.351Z,18.90
2022-11-21T12:58:14.198Z,17.57
2022-11-21T13:01:00.360Z,17.57
2022-11-21T13:03:37.614Z,17.40
2022-11-21T13:06:05.466Z,16.70
2022-11-21T13:08:35.722Z,18.93
2022-11-21T13:11:33.329Z,18.97
2022-11-21T13:14:04.347Z,19.00
2022-11-21T13:16:38.624Z,16.77
2022-11-21T13:19:16.164Z,19.00
2022-11-21T13:21:48.041Z,21.00
2022-11-21T13:24:47.044Z,18.17
2022-11-21T13:27:38.929Z,15.87
2022-11-21T13:30:11.975Z,16.90
2022-11-21T13:32:52.357Z,15.60
2022-11-21T13:35:19.241Z,16.10
2022-11-21T13:38:03.876Z,14.40
2022-11-21T13:40:30.407Z,17.60
2022-11-21T13:43:32.192Z,15.50
2022-11-21T13:45:57.381Z,17.87
2022-11-21T13:48:42.816Z,15.37
2022-11-21T13:51:46.928Z,18.23
2022-11-21T13:54:32.085Z,15.63
2022-11-21T13:57:07.726Z,13.63
2022-11-21T13:59:57.123Z,17.27
2022-11-21T14:02:32.816Z,19.07
2022-11-21T14:05:05.584Z,21.83
2022-11-21T14:07:37.219Z,17.30
2022-11-21T14:10:06.750Z,19.57
2022-11-21T14:12:38.304Z,16.60
2022-11-21T14:15:15.214Z,18.30
2022-11-21T14:17:48.839Z,16.53
2022-11-21T14:20:25.635Z,21.13
2022-11-21T14:22:58.233Z,21.27
2022-11-21T14:25:54.058Z,19.43
2022-11-21T14:28:32.207Z,17.17
2022-11-21T14:31:03.694Z,16.00
2022-11-21T14:33:35.154Z,19.97
2022-11-21T14:36:13.755Z,17.00
2022-11-21T14:38:44.734Z,20.07
2022-11-21T14:41:16.291Z,20.00
2022-11-21T14:43:42.928Z,19.17
2022-11-21T14:46:18.306Z,19.33
2022-11-21T14:48:44.963Z,15.30
2022-11-21T14:51:15.333Z,17.47
2022-11-21T14:53:42.732Z,15.37
2022-11-21T14:56:12.311Z,16.10
2022-11-21T14:58:40.641Z,15.57
2022-11-21T15:01:19.354Z,21.30
2022-11-21T15:04:03.497Z,16.10
2022-11-21T15:06:33.530Z,16.40
2022-11-21T15:10:19.342Z,15.50
2022-11-21T15:11:52.348Z,19.07
2022-11-21T15:14:26.414Z,18.03
2022-11-21T15:16:53.978Z,20.57
2022-11-21T15:19:22.481Z,22.73
2022-11-21T15:22:01.500Z,21.50
2022-11-21T15:24:36.272Z,18.33
2022-11-21T15:27:32.298Z,17.63
2022-11-21T15:30:10.982Z,23.70
2022-11-21T15:33:10.350Z,21.00
2022-11-21T15:35:55.948Z,21.00
2022-11-21T15:38:26.015Z,25.00
2022-11-21T15:40:59.195Z,22.40
2022-11-21T15:43:56.163Z,23.00
2022-11-21T15:46:42.344Z,20.90
2022-11-21T15:49:31.422Z,24.43
2022-11-21T15:52:12.551Z,22.83
2022-11-21T15:54:39.220Z,24.93
2022-11-21T15:57:05.897Z,23.00
2022-11-21T15:59:32.762Z,20.10
2022-11-21T16:01:59.603Z,24.87
2022-11-21T16:04:26.546Z,19.47
2022-11-21T16:06:54.227Z,21.50
2022-11-21T16:09:20.932Z,21.40
2022-11-21T16:11:47.496Z,22.00
2022-11-21T16:14:15.821Z,22.77
2022-11-21T16:16:43.946Z,22.30
2022-11-21T16:19:15.435Z,21.57
2022-11-21T16:21:42.263Z,20.57
2022-11-21T16:24:10.950Z,27.20
2022-11-21T16:26:52.350Z,20.37
2022-11-21T16:29:18.916Z,23.10
2022-11-21T16:31:45.578Z,19.40
2022-11-21T16:34:18.725Z,18.43
2022-11-21T16:36:45.446Z,17.50
2022-11-21T16:39:17.808Z,24.13
2022-11-21T16:41:49.066Z,18.93
2022-11-21T16:44:16.273Z,22.30
2022-11-21T16:46:44.514Z,23.67
2022-11-21T16:49:19.235Z,21.47
2022-11-21T16:51:46.212Z,21.77
2022-11-21T16:54:12.920Z,19.13
2022-11-21T16:56:40.932Z,22.57
2022-11-21T16:59:09.047Z,19.67
2022-11-21T17:01:35.771Z,19.10
2022-11-21T17:04:02.545Z,22.23
2022-11-21T17:06:30.489Z,19.50
2022-11-21T17:08:59.974Z,20.27
2022-11-21T17:11:29.529Z,33.47
2022-11-21T17:13:58.416Z,22.00
2022-11-21T17:16:25.161Z,20.53
2022-11-21T17:19:00.103Z,18.90
2022-11-21T17:21:27.777Z,21.13
2022-11-21T17:23:54.494Z,24.97
2022-11-21T17:26:23.006Z,20.50
2022-11-21T17:28:58.575Z,21.87
2022-11-21T17:31:26.080Z,20.10
2022-11-21T17:33:54.356Z,21.40
2022-11-21T17:36:25.192Z,22.53
2022-11-21T17:38:52.445Z,23.00
2022-11-21T17:41:20.662Z,21.40
2022-11-21T17:43:48.472Z,19.90
2022-11-21T17:46:19.899Z,19.17
2022-11-21T17:48:54.319Z,20.83
2022-11-21T17:51:25.377Z,22.93
2022-11-21T17:53:52.794Z,22.10
2022-11-21T17:56:24.013Z,25.70
2022-11-21T17:58:51.531Z,19.83
2022-11-21T18:01:21.171Z,21.70
2022-11-21T18:03:56.846Z,22.93
2022-11-21T18:06:24.561Z,23.93
2022-11-21T18:08:58.571Z,27.10
2022-11-21T18:11:28.687Z,22.90
2022-11-21T18:13:58.794Z,22.47
2022-11-21T18:16:28.244Z,19.03
2022-11-21T18:18:55.270Z,17.93
2022-11-21T18:21:23.987Z,24.80
2022-11-21T18:23:52.113Z,20.97
2022-11-21T18:26:38.284Z,18.17
2022-11-21T18:29:35.124Z,18.37
2022-11-21T18:31:53.773Z,20.00
2022-11-21T18:34:20.440Z,17.97
2022-11-21T18:36:47.766Z,16.10
2022-11-21T18:39:15.583Z,18.03
2022-11-21T18:41:46.991Z,20.67
2022-11-21T18:44:21.484Z,22.70
2022-11-21T18:46:49.920Z,22.37
2022-11-21T18:49:16.866Z,22.40
2022-11-21T18:51:45.047Z,25.80
2022-11-21T18:54:12.275Z,27.63
2022-11-21T18:56:42.338Z,22.43
2022-11-21T18:59:10.364Z,22.07
2022-11-21T19:01:39.508Z,22.73
2022-11-21T19:04:06.425Z,26.40
2022-11-21T19:06:45.710Z,27.03
2022-11-21T19:09:32.502Z,28.90
2022-11-21T19:12:18.033Z,28.00
2022-11-21T19:14:52.013Z,36.33
2022-11-21T19:17:18.741Z,32.40
2022-11-21T19:19:46.635Z,38.40
2022-11-21T19:22:13.236Z,34.63
2022-11-21T19:24:39.856Z,27.87
2022-11-21T19:27:09.032Z,35.47
2022-11-21T19:29:35.588Z,28.57
2022-11-21T19:32:02.262Z,30.07
2022-11-21T19:34:28.856Z,26.93
2022-11-21T19:36:55.461Z,36.60
2022-11-21T19:39:24.406Z,31.90
2022-11-21T19:41:50.988Z,35.07
2022-11-21T19:44:17.617Z,32.00
2022-11-21T19:46:44.353Z,28.50
2022-11-21T19:49:11.486Z,30.20
2022-11-21T19:51:40.744Z,32.97
2022-11-21T19:54:08.702Z,36.30
2022-11-21T19:56:35.831Z,35.67
2022-11-21T19:59:02.756Z,31.47
2022-11-21T20:01:31.345Z,34.13
2022-11-21T20:04:00.126Z,34.63
2022-11-21T20:06:35.234Z,31.23
2022-11-21T20:09:06.092Z,30.43
2022-11-21T20:11:33.360Z,36.33
2022-11-21T20:14:00.168Z,28.00
2022-11-21T20:16:27.809Z,34.57
2022-11-21T20:18:57.015Z,32.17
2022-11-21T20:21:23.904Z,31.57
2022-11-21T20:23:50.905Z,33.77
2022-11-21T20:26:18.700Z,35.47
2022-11-21T20:28:45.692Z,34.57
2022-11-21T20:31:17.147Z,32.87
2022-11-21T20:33:52.421Z,32.47
2022-11-21T20:36:21.261Z,33.80
2022-11-21T20:39:12.909Z,33.83
2022-11-21T20:41:39.716Z,38.27
2022-11-21T20:46:55.395Z,36.80
2022-11-21T20:49:22.390Z,32.23
2022-11-21T20:54:36.274Z,32.63
2022-11-21T20:57:02.881Z,34.53
2022-11-21T20:59:29.874Z,32.07
2022-11-21T21:01:56.922Z,27.63
2022-11-21T21:04:23.629Z,31.60
2022-11-21T21:06:50.235Z,34.87
2022-11-21T21:09:19.246Z,32.17
2022-11-21T21:11:52.008Z,31.00
2022-11-21T21:14:19.751Z,30.87
2022-11-21T21:16:46.654Z,35.53
2022-11-21T21:19:13.353Z,32.70
2022-11-21T21:21:42.394Z,30.90
2022-11-21T21:24:10.919Z,35.80
2022-11-21T21:26:42.924Z,34.40
2022-11-21T21:29:11.415Z,37.23
2022-11-21T21:31:46.804Z,29.97
2022-11-21T21:34:17.015Z,37.57
2022-11-21T21:36:43.682Z,33.27
2022-11-21T21:39:10.362Z,33.07
2022-11-21T21:41:41.074Z,30.43
2022-11-21T21:44:07.784Z,30.97
2022-11-21T21:46:34.480Z,29.83
2022-11-21T21:49:01.306Z,32.23
2022-11-21T21:51:30.416Z,32.00
2022-11-21T21:53:58.338Z,29.37
2022-11-21T21:56:27.588Z,27.00
2022-11-21T21:58:54.436Z,34.87
2022-11-21T22:01:28.108Z,32.53
2022-11-21T22:04:00.306Z,30.13
2022-11-21T22:06:27.688Z,28.87
2022-11-21T22:08:55.553Z,29.70
2022-11-21T22:11:24.506Z,28.50
2022-11-21T22:14:11.482Z,29.27
2022-11-21T22:16:38.462Z,28.00
2022-11-21T22:19:05.097Z,29.13
2022-11-21T22:21:33.835Z,29.70
2022-11-21T22:24:24.154Z,25.10
2022-11-21T22:26:48.723Z,27.37
2022-11-21T22:29:15.353Z,29.47
2022-11-21T22:31:42.051Z,26.37
2022-11-21T22:34:12.444Z,22.47
2022-11-21T22:36:39.058Z,26.20
2022-11-21T22:39:05.650Z,25.80
2022-11-21T22:41:42.085Z,24.00
2022-11-21T22:44:08.766Z,23.57
2022-11-21T22:46:39.971Z,19.60
2022-11-21T22:49:06.685Z,24.60
2022-11-21T22:51:34.588Z,21.63
2022-11-21T22:54:01.197Z,24.27
2022-11-21T22:56:27.835Z,22.57
2022-11-21T22:58:56.726Z,23.87
2022-11-21T23:01:24.837Z,20.20
2022-11-21T23:03:52.015Z,23.63
2022-11-21T23:06:26.510Z,22.23
2022-11-21T23:08:55.327Z,21.97
2022-11-21T23:11:36.265Z,25.93
2022-11-21T23:14:07.719Z,26.30
2022-11-21T23:16:34.419Z,24.70
2022-11-21T23:19:01.081Z,22.23
2022-11-21T23:21:27.772Z,24.27
2022-11-21T23:23:54.413Z,23.13
2022-11-21T23:26:21.080Z,26.23
2022-11-21T23:28:47.743Z,26.90
2022-11-21T23:31:14.370Z,24.97
2022-11-21T23:33:41.026Z,27.70
2022-11-21T23:36:07.706Z,27.50
2022-11-21T23:38:34.400Z,24.00
2022-11-21T23:41:00.987Z,23.90
2022-11-21T23:43:27.596Z,22.30
2022-11-21T23:45:54.883Z,26.53
2022-11-21T23:48:22.090Z,27.90
2022-11-21T23:50:51.438Z,25.57
2022-11-21T23:53:21.360Z,23.47
2022-11-21T23:55:48.473Z,24.03
2022-11-21T23:58:15.588Z,24.37
